Allenville, Illinois
Current Conditions -  °F | °C
As of 9:53 PM on Monday 22 Dec 2014 (Local Time) from KMTO Reporting Station
Light Rain Light Rain  
Wind Chill: 42°   Ceiling: 600
Heat Index: 48°   Visibility: 6mi
Dew Point: 46°   Wind: 15mph
Humidity: 93%   Direction: 160°SSE
Pressure: 29.57"   Gusts: 23mph
Location:  39.5872°N, 88.5835°W
Report Text: KMTO 230353Z AUTO 16013G20KT 6SM -RA BR OVC006 09/08 A2957 RMK AO2 RAE04B20 SLP014 P0001 T00890078
Loading
Personal Weather Stations






























Interactive Weather Map New forecast layout! Learn more

10-Day Weather Forecast

Advertisements
Track Severe Weather on mobile